createdAt,value
2023-11-01T03:53:56.475Z,8.70
2023-11-01T03:56:24.022Z,8.80
2023-11-01T03:58:51.195Z,8.70
2023-11-01T04:01:18.384Z,8.80
2023-11-01T04:03:47.410Z,8.80
2023-11-01T04:06:14.849Z,8.70
2023-11-01T04:08:42.336Z,8.80
2023-11-01T04:11:09.513Z,8.80
2023-11-01T04:13:36.718Z,8.70
2023-11-01T04:16:04.046Z,8.70
2023-11-01T04:18:31.146Z,8.70
2023-11-01T04:20:58.278Z,8.70
2023-11-01T04:23:26.507Z,8.70
2023-11-01T04:25:54.131Z,8.80
2023-11-01T04:28:21.400Z,8.80
2023-11-01T04:30:48.561Z,8.80
2023-11-01T04:33:16.684Z,8.80
2023-11-01T04:35:43.913Z,8.80
2023-11-01T04:38:12.633Z,8.80
2023-11-01T04:40:39.728Z,8.70
2023-11-01T04:43:08.147Z,8.90
2023-11-01T04:45:35.664Z,8.80
2023-11-01T04:48:03.728Z,8.80
2023-11-01T04:50:31.101Z,8.80
2023-11-01T04:52:58.936Z,8.70
2023-11-01T04:55:26.400Z,8.80
2023-11-01T04:57:53.976Z,8.70
2023-11-01T05:00:21.189Z,8.70
2023-11-01T05:02:48.630Z,8.60
2023-11-01T05:05:16.139Z,8.70
2023-11-01T05:07:44.064Z,8.50
2023-11-01T05:10:11.188Z,8.40
2023-11-01T05:12:38.310Z,8.30
2023-11-01T05:15:05.661Z,8.30
2023-11-01T05:17:33.034Z,8.20
2023-11-01T05:20:00.163Z,8.20
2023-11-01T05:22:27.283Z,8.20
2023-11-01T05:24:54.459Z,8.10
2023-11-01T05:27:21.701Z,8.10
2023-11-01T05:29:48.944Z,8.10
2023-11-01T05:32:16.528Z,8.00
2023-11-01T05:34:43.622Z,8.00
2023-11-01T05:37:12.586Z,8.00
2023-11-01T05:39:40.795Z,7.90
2023-11-01T05:42:07.947Z,7.80
2023-11-01T05:44:35.058Z,7.70
2023-11-01T05:47:03.875Z,7.70
2023-11-01T05:49:34.081Z,7.70
2023-11-01T05:52:01.939Z,7.70
2023-11-01T05:54:29.130Z,7.70
2023-11-01T05:56:56.642Z,7.70
2023-11-01T05:59:23.759Z,7.80
2023-11-01T06:01:54.269Z,7.80
2023-11-01T06:04:22.301Z,7.70
2023-11-01T06:06:49.676Z,7.80
2023-11-01T06:09:21.008Z,7.80
2023-11-01T06:11:48.203Z,7.60
2023-11-01T06:14:16.237Z,7.70
2023-11-01T06:16:43.471Z,7.70
2023-11-01T06:19:10.565Z,7.60
2023-11-01T06:21:37.870Z,7.60
2023-11-01T06:24:05.326Z,7.60
2023-11-01T06:26:33.188Z,7.60
2023-11-01T06:29:00.300Z,7.60
2023-11-01T06:31:27.404Z,7.60
2023-11-01T06:33:54.533Z,7.60
2023-11-01T06:36:22.373Z,7.60
2023-11-01T06:38:49.507Z,7.70
2023-11-01T06:41:16.750Z,7.70
2023-11-01T06:43:43.886Z,7.70
2023-11-01T06:46:11.006Z,7.70
2023-11-01T06:48:38.153Z,7.70
2023-11-01T06:51:05.661Z,7.80
2023-11-01T06:53:32.789Z,7.90
2023-11-01T06:56:00.090Z,7.80
2023-11-01T06:58:27.553Z,7.90
